sensor_id;sensor_type;location;lat;lon;timestamp;temperature;humidity
13405;DHT22;6773;51.192;7.024;2022-10-16T00:01:57;13.60;99.90
13405;DHT22;6773;51.192;7.024;2022-10-16T00:04:23;13.60;99.90
13405;DHT22;6773;51.192;7.024;2022-10-16T00:09:15;13.60;99.90
13405;DHT22;6773;51.192;7.024;2022-10-16T00:11:41;13.60;99.90
13405;DHT22;6773;51.192;7.024;2022-10-16T00:14:13;13.60;99.90
13405;DHT22;6773;51.192;7.024;2022-10-16T00:16:39;13.60;99.90
13405;DHT22;6773;51.192;7.024;2022-10-16T00:19:05;13.60;99.90
13405;DHT22;6773;51.192;7.024;2022-10-16T00:21:32;13.50;99.90
13405;DHT22;6773;51.192;7.024;2022-10-16T00:24:02;13.50;99.90
13405;DHT22;6773;51.192;7.024;2022-10-16T00:26:30;13.50;99.90
13405;DHT22;6773;51.192;7.024;2022-10-16T00:28:55;13.50;99.90
13405;DHT22;6773;51.192;7.024;2022-10-16T00:31:22;13.50;99.90
13405;DHT22;6773;51.192;7.024;2022-10-16T00:33:48;13.50;99.90
13405;DHT22;6773;51.192;7.024;2022-10-16T00:36:16;13.50;99.90
13405;DHT22;6773;51.192;7.024;2022-10-16T00:41:12;13.50;99.90
13405;DHT22;6773;51.192;7.024;2022-10-16T00:43:42;13.50;99.90
13405;DHT22;6773;51.192;7.024;2022-10-16T00:48:54;13.50;99.90
13405;DHT22;6773;51.192;7.024;2022-10-16T00:51:24;13.40;99.90
13405;DHT22;6773;51.192;7.024;2022-10-16T00:53:50;13.40;99.90
13405;DHT22;6773;51.192;7.024;2022-10-16T00:56:17;13.40;99.90
13405;DHT22;6773;51.192;7.024;2022-10-16T00:58:43;13.40;99.90
13405;DHT22;6773;51.192;7.024;2022-10-16T01:01:08;13.40;99.90
13405;DHT22;6773;51.192;7.024;2022-10-16T01:03:35;13.30;99.90
13405;DHT22;6773;51.192;7.024;2022-10-16T01:06:09;13.30;99.90
13405;DHT22;6773;51.192;7.024;2022-10-16T01:14:06;13.30;99.90
13405;DHT22;6773;51.192;7.024;2022-10-16T01:16:40;13.30;99.90
13405;DHT22;6773;51.192;7.024;2022-10-16T01:19:41;13.30;99.90
13405;DHT22;6773;51.192;7.024;2022-10-16T01:24:49;13.30;99.90
13405;DHT22;6773;51.192;7.024;2022-10-16T01:35:07;13.30;99.90
13405;DHT22;6773;51.192;7.024;2022-10-16T01:37:41;13.20;99.90
13405;DHT22;6773;51.192;7.024;2022-10-16T01:40:11;13.20;99.90
13405;DHT22;6773;51.192;7.024;2022-10-16T01:42:46;13.30;99.90
13405;DHT22;6773;51.192;7.024;2022-10-16T01:45:15;13.20;99.90
13405;DHT22;6773;51.192;7.024;2022-10-16T01:47:43;13.20;99.90
13405;DHT22;6773;51.192;7.024;2022-10-16T01:50:09;13.20;99.90
13405;DHT22;6773;51.192;7.024;2022-10-16T01:52:38;13.20;99.90
13405;DHT22;6773;51.192;7.024;2022-10-16T01:55:06;13.20;99.90
13405;DHT22;6773;51.192;7.024;2022-10-16T01:57:36;13.20;99.90
13405;DHT22;6773;51.192;7.024;2022-10-16T02:00:09;13.20;99.90
13405;DHT22;6773;51.192;7.024;2022-10-16T02:02:36;13.20;99.90
13405;DHT22;6773;51.192;7.024;2022-10-16T02:05:08;13.20;99.90
13405;DHT22;6773;51.192;7.024;2022-10-16T02:10:01;13.20;99.90
13405;DHT22;6773;51.192;7.024;2022-10-16T02:12:29;13.20;99.90
13405;DHT22;6773;51.192;7.024;2022-10-16T02:17:23;13.20;99.90
13405;DHT22;6773;51.192;7.024;2022-10-16T02:19:51;13.20;99.90
13405;DHT22;6773;51.192;7.024;2022-10-16T02:22:30;13.10;99.90
13405;DHT22;6773;51.192;7.024;2022-10-16T02:25:08;13.20;99.90
13405;DHT22;6773;51.192;7.024;2022-10-16T02:27:41;13.20;99.90
13405;DHT22;6773;51.192;7.024;2022-10-16T02:30:34;13.20;99.90
13405;DHT22;6773;51.192;7.024;2022-10-16T02:33:04;13.20;99.90
13405;DHT22;6773;51.192;7.024;2022-10-16T02:35:31;13.20;99.90
13405;DHT22;6773;51.192;7.024;2022-10-16T02:37:57;13.20;99.90
13405;DHT22;6773;51.192;7.024;2022-10-16T02:40:24;13.30;99.90
13405;DHT22;6773;51.192;7.024;2022-10-16T02:42:52;13.30;99.90
13405;DHT22;6773;51.192;7.024;2022-10-16T02:45:19;13.20;99.90
13405;DHT22;6773;51.192;7.024;2022-10-16T02:47:45;13.30;99.90
13405;DHT22;6773;51.192;7.024;2022-10-16T02:50:10;13.30;99.90
13405;DHT22;6773;51.192;7.024;2022-10-16T02:55:02;13.30;99.90
13405;DHT22;6773;51.192;7.024;2022-10-16T02:57:28;13.30;99.90
13405;DHT22;6773;51.192;7.024;2022-10-16T03:02:20;13.30;99.90
13405;DHT22;6773;51.192;7.024;2022-10-16T03:04:45;13.30;99.90
13405;DHT22;6773;51.192;7.024;2022-10-16T03:07:11;13.30;99.90
13405;DHT22;6773;51.192;7.024;2022-10-16T03:09:36;13.30;99.90
13405;DHT22;6773;51.192;7.024;2022-10-16T03:12:02;13.30;99.90
13405;DHT22;6773;51.192;7.024;2022-10-16T03:14:28;13.20;99.90
13405;DHT22;6773;51.192;7.024;2022-10-16T03:16:53;13.30;99.90
13405;DHT22;6773;51.192;7.024;2022-10-16T03:19:19;13.30;99.90
13405;DHT22;6773;51.192;7.024;2022-10-16T03:21:45;13.30;99.90
13405;DHT22;6773;51.192;7.024;2022-10-16T03:24:10;13.30;99.90
13405;DHT22;6773;51.192;7.024;2022-10-16T03:26:36;13.20;99.90
13405;DHT22;6773;51.192;7.024;2022-10-16T03:29:02;13.20;99.90
13405;DHT22;6773;51.192;7.024;2022-10-16T03:31:29;13.20;99.90
13405;DHT22;6773;51.192;7.024;2022-10-16T03:33:54;13.10;99.90
13405;DHT22;6773;51.192;7.024;2022-10-16T03:36:20;13.20;99.90
13405;DHT22;6773;51.192;7.024;2022-10-16T03:41:11;13.20;99.90
13405;DHT22;6773;51.192;7.024;2022-10-16T03:43:37;13.20;99.90
13405;DHT22;6773;51.192;7.024;2022-10-16T03:46:02;13.20;99.90
13405;DHT22;6773;51.192;7.024;2022-10-16T03:48:28;13.20;99.90
13405;DHT22;6773;51.192;7.024;2022-10-16T03:55:46;13.20;99.90
13405;DHT22;6773;51.192;7.024;2022-10-16T04:00:45;13.20;99.90
13405;DHT22;6773;51.192;7.024;2022-10-16T04:03:11;13.20;99.90
13405;DHT22;6773;51.192;7.024;2022-10-16T04:05:38;13.20;99.90
13405;DHT22;6773;51.192;7.024;2022-10-16T04:08:04;13.10;99.90
13405;DHT22;6773;51.192;7.024;2022-10-16T04:10:30;13.10;99.90
13405;DHT22;6773;51.192;7.024;2022-10-16T04:12:55;13.10;99.90
13405;DHT22;6773;51.192;7.024;2022-10-16T04:15:22;13.00;99.90
13405;DHT22;6773;51.192;7.024;2022-10-16T04:17:48;13.00;99.90
13405;DHT22;6773;51.192;7.024;2022-10-16T04:20:14;13.00;99.90
13405;DHT22;6773;51.192;7.024;2022-10-16T04:22:39;13.00;99.90
13405;DHT22;6773;51.192;7.024;2022-10-16T04:25:05;12.90;99.90
13405;DHT22;6773;51.192;7.024;2022-10-16T04:27:31;13.00;99.90
13405;DHT22;6773;51.192;7.024;2022-10-16T04:29:58;12.80;99.90
13405;DHT22;6773;51.192;7.024;2022-10-16T04:32:23;12.90;99.90
13405;DHT22;6773;51.192;7.024;2022-10-16T04:37:15;12.80;99.90
13405;DHT22;6773;51.192;7.024;2022-10-16T04:39:40;12.90;99.90
13405;DHT22;6773;51.192;7.024;2022-10-16T04:42:06;12.80;99.90
13405;DHT22;6773;51.192;7.024;2022-10-16T04:44:32;12.80;99.90
13405;DHT22;6773;51.192;7.024;2022-10-16T04:49:23;12.80;99.90
13405;DHT22;6773;51.192;7.024;2022-10-16T04:51:49;12.80;99.90
13405;DHT22;6773;51.192;7.024;2022-10-16T04:54:15;12.80;99.90
13405;DHT22;6773;51.192;7.024;2022-10-16T04:56:40;12.80;99.90
13405;DHT22;6773;51.192;7.024;2022-10-16T04:59:13;12.80;99.90
13405;DHT22;6773;51.192;7.024;2022-10-16T05:01:39;12.80;99.90
13405;DHT22;6773;51.192;7.024;2022-10-16T05:04:04;12.80;99.90
13405;DHT22;6773;51.192;7.024;2022-10-16T05:06:30;12.70;99.90
13405;DHT22;6773;51.192;7.024;2022-10-16T05:08:55;12.70;99.90
13405;DHT22;6773;51.192;7.024;2022-10-16T05:13:47;12.70;99.90
13405;DHT22;6773;51.192;7.024;2022-10-16T05:16:13;12.70;99.90
13405;DHT22;6773;51.192;7.024;2022-10-16T05:18:38;12.70;99.90
13405;DHT22;6773;51.192;7.024;2022-10-16T05:21:04;12.70;99.90
13405;DHT22;6773;51.192;7.024;2022-10-16T05:25:57;12.60;99.90
13405;DHT22;6773;51.192;7.024;2022-10-16T05:28:28;12.60;99.90
13405;DHT22;6773;51.192;7.024;2022-10-16T05:30:54;12.60;99.90
13405;DHT22;6773;51.192;7.024;2022-10-16T05:33:22;12.60;99.90
13405;DHT22;6773;51.192;7.024;2022-10-16T05:35:48;12.60;99.90
13405;DHT22;6773;51.192;7.024;2022-10-16T05:38:15;12.60;99.90
13405;DHT22;6773;51.192;7.024;2022-10-16T05:40:41;12.60;99.90
13405;DHT22;6773;51.192;7.024;2022-10-16T05:43:07;12.60;99.90
13405;DHT22;6773;51.192;7.024;2022-10-16T05:45:33;12.60;99.90
13405;DHT22;6773;51.192;7.024;2022-10-16T05:48:00;12.60;99.90
13405;DHT22;6773;51.192;7.024;2022-10-16T05:50:26;12.60;99.90
13405;DHT22;6773;51.192;7.024;2022-10-16T05:52:51;12.60;99.90
13405;DHT22;6773;51.192;7.024;2022-10-16T05:55:17;12.60;99.90
13405;DHT22;6773;51.192;7.024;2022-10-16T06:00:09;12.70;99.90
13405;DHT22;6773;51.192;7.024;2022-10-16T06:02:35;12.70;99.90
13405;DHT22;6773;51.192;7.024;2022-10-16T06:05:01;12.70;99.90
13405;DHT22;6773;51.192;7.024;2022-10-16T06:07:26;12.70;99.90
13405;DHT22;6773;51.192;7.024;2022-10-16T06:09:52;12.70;99.90
13405;DHT22;6773;51.192;7.024;2022-10-16T06:12:19;12.80;99.90
13405;DHT22;6773;51.192;7.024;2022-10-16T06:14:45;12.80;99.90
13405;DHT22;6773;51.192;7.024;2022-10-16T06:17:13;12.80;99.90
13405;DHT22;6773;51.192;7.024;2022-10-16T06:19:39;12.90;99.90
13405;DHT22;6773;51.192;7.024;2022-10-16T06:24:31;12.90;99.90
13405;DHT22;6773;51.192;7.024;2022-10-16T06:26:56;13.00;99.90
13405;DHT22;6773;51.192;7.024;2022-10-16T06:29:22;13.00;99.90
13405;DHT22;6773;51.192;7.024;2022-10-16T06:31:47;13.00;99.90
13405;DHT22;6773;51.192;7.024;2022-10-16T06:34:13;13.10;99.90
13405;DHT22;6773;51.192;7.024;2022-10-16T06:39:05;13.10;99.90
13405;DHT22;6773;51.192;7.024;2022-10-16T06:41:33;13.20;99.90
13405;DHT22;6773;51.192;7.024;2022-10-16T06:43:58;13.30;99.90
13405;DHT22;6773;51.192;7.024;2022-10-16T06:46:25;13.50;99.90
13405;DHT22;6773;51.192;7.024;2022-10-16T06:48:52;13.70;99.90
13405;DHT22;6773;51.192;7.024;2022-10-16T06:51:20;13.80;99.90
13405;DHT22;6773;51.192;7.024;2022-10-16T06:53:48;13.70;99.90
13405;DHT22;6773;51.192;7.024;2022-10-16T06:58:46;13.70;99.90
13405;DHT22;6773;51.192;7.024;2022-10-16T07:01:12;13.70;99.90
13405;DHT22;6773;51.192;7.024;2022-10-16T07:03:40;13.80;99.90
13405;DHT22;6773;51.192;7.024;2022-10-16T07:06:07;13.80;99.90
13405;DHT22;6773;51.192;7.024;2022-10-16T07:08:34;13.90;99.90
13405;DHT22;6773;51.192;7.024;2022-10-16T07:11:01;13.90;99.90
13405;DHT22;6773;51.192;7.024;2022-10-16T07:13:27;13.90;99.90
13405;DHT22;6773;51.192;7.024;2022-10-16T07:15:53;13.90;99.90
13405;DHT22;6773;51.192;7.024;2022-10-16T07:20:44;14.00;99.90
13405;DHT22;6773;51.192;7.024;2022-10-16T07:23:10;14.00;99.90
13405;DHT22;6773;51.192;7.024;2022-10-16T07:25:35;13.90;99.90
13405;DHT22;6773;51.192;7.024;2022-10-16T07:28:01;13.90;99.90
13405;DHT22;6773;51.192;7.024;2022-10-16T07:30:26;13.90;99.90
13405;DHT22;6773;51.192;7.024;2022-10-16T07:32:52;14.00;99.90
13405;DHT22;6773;51.192;7.024;2022-10-16T07:35:18;14.00;99.90
13405;DHT22;6773;51.192;7.024;2022-10-16T07:37:46;14.00;99.90
13405;DHT22;6773;51.192;7.024;2022-10-16T07:42:38;14.10;99.90
13405;DHT22;6773;51.192;7.024;2022-10-16T07:45:04;14.10;99.90
13405;DHT22;6773;51.192;7.024;2022-10-16T07:49:56;14.00;99.90
13405;DHT22;6773;51.192;7.024;2022-10-16T07:52:21;14.00;99.90
13405;DHT22;6773;51.192;7.024;2022-10-16T07:59:45;14.40;99.90
13405;DHT22;6773;51.192;7.024;2022-10-16T08:02:11;14.70;99.90
13405;DHT22;6773;51.192;7.024;2022-10-16T08:04:37;14.90;99.90
13405;DHT22;6773;51.192;7.024;2022-10-16T08:07:03;15.00;99.90
13405;DHT22;6773;51.192;7.024;2022-10-16T08:09:28;15.20;99.90
13405;DHT22;6773;51.192;7.024;2022-10-16T08:11:54;15.40;99.90
13405;DHT22;6773;51.192;7.024;2022-10-16T08:14:19;15.50;99.90
13405;DHT22;6773;51.192;7.024;2022-10-16T08:19:11;15.80;99.90
13405;DHT22;6773;51.192;7.024;2022-10-16T08:21:36;15.80;99.90
13405;DHT22;6773;51.192;7.024;2022-10-16T08:24:02;15.90;99.90
13405;DHT22;6773;51.192;7.024;2022-10-16T08:26:28;15.90;99.90
13405;DHT22;6773;51.192;7.024;2022-10-16T08:28:54;16.00;99.90
13405;DHT22;6773;51.192;7.024;2022-10-16T08:31:20;16.20;99.90
13405;DHT22;6773;51.192;7.024;2022-10-16T08:33:46;16.30;99.90
13405;DHT22;6773;51.192;7.024;2022-10-16T08:36:12;16.30;99.90
13405;DHT22;6773;51.192;7.024;2022-10-16T08:38:38;16.40;99.90
13405;DHT22;6773;51.192;7.024;2022-10-16T08:43:51;16.60;99.90
13405;DHT22;6773;51.192;7.024;2022-10-16T08:46:50;16.50;99.90
13405;DHT22;6773;51.192;7.024;2022-10-16T08:49:21;16.70;99.90
13405;DHT22;6773;51.192;7.024;2022-10-16T08:51:49;16.70;99.90
13405;DHT22;6773;51.192;7.024;2022-10-16T08:54:36;16.80;99.90
13405;DHT22;6773;51.192;7.024;2022-10-16T08:57:16;16.80;99.90
13405;DHT22;6773;51.192;7.024;2022-10-16T08:59:42;17.10;99.90
13405;DHT22;6773;51.192;7.024;2022-10-16T09:02:31;17.20;99.90
13405;DHT22;6773;51.192;7.024;2022-10-16T09:08:16;17.20;99.90
13405;DHT22;6773;51.192;7.024;2022-10-16T09:14:41;17.50;99.90
13405;DHT22;6773;51.192;7.024;2022-10-16T09:16:42;17.40;99.90
13405;DHT22;6773;51.192;7.024;2022-10-16T09:19:28;17.50;99.90
13405;DHT22;6773;51.192;7.024;2022-10-16T09:21:57;17.60;99.90
13405;DHT22;6773;51.192;7.024;2022-10-16T09:24:26;17.60;99.90
13405;DHT22;6773;51.192;7.024;2022-10-16T09:26:51;17.80;99.90
13405;DHT22;6773;51.192;7.024;2022-10-16T09:29:19;17.60;99.90
13405;DHT22;6773;51.192;7.024;2022-10-16T09:31:51;17.70;99.90
13405;DHT22;6773;51.192;7.024;2022-10-16T09:36:56;18.00;99.90
13405;DHT22;6773;51.192;7.024;2022-10-16T09:39:22;18.00;99.90
13405;DHT22;6773;51.192;7.024;2022-10-16T09:41:48;18.50;99.90
13405;DHT22;6773;51.192;7.024;2022-10-16T09:44:23;18.50;99.90
13405;DHT22;6773;51.192;7.024;2022-10-16T09:47:01;19.60;99.90
13405;DHT22;6773;51.192;7.024;2022-10-16T09:49:27;19.70;99.90
13405;DHT22;6773;51.192;7.024;2022-10-16T09:52:09;19.70;99.90
13405;DHT22;6773;51.192;7.024;2022-10-16T09:54:36;19.30;99.90
13405;DHT22;6773;51.192;7.024;2022-10-16T09:57:12;19.20;99.90
13405;DHT22;6773;51.192;7.024;2022-10-16T09:59:53;19.30;99.90
13405;DHT22;6773;51.192;7.024;2022-10-16T10:02:28;19.30;99.90
13405;DHT22;6773;51.192;7.024;2022-10-16T10:04:55;19.10;99.90
13405;DHT22;6773;51.192;7.024;2022-10-16T10:07:27;19.10;99.90
13405;DHT22;6773;51.192;7.024;2022-10-16T10:09:55;19.60;99.90
13405;DHT22;6773;51.192;7.024;2022-10-16T10:12:25;19.60;99.90
13405;DHT22;6773;51.192;7.024;2022-10-16T10:14:52;19.80;99.90
13405;DHT22;6773;51.192;7.024;2022-10-16T10:17:32;20.00;99.90
13405;DHT22;6773;51.192;7.024;2022-10-16T10:22:54;20.10;99.90
13405;DHT22;6773;51.192;7.024;2022-10-16T10:25:43;19.90;99.90
13405;DHT22;6773;51.192;7.024;2022-10-16T10:31:24;20.10;99.90
13405;DHT22;6773;51.192;7.024;2022-10-16T10:34:11;20.00;99.90
13405;DHT22;6773;51.192;7.024;2022-10-16T10:36:46;19.60;99.90
13405;DHT22;6773;51.192;7.024;2022-10-16T10:39:23;19.70;99.90
13405;DHT22;6773;51.192;7.024;2022-10-16T10:50:24;20.70;97.60
13405;DHT22;6773;51.192;7.024;2022-10-16T10:53:47;20.40;99.40
13405;DHT22;6773;51.192;7.024;2022-10-16T11:01:21;19.90;99.90
13405;DHT22;6773;51.192;7.024;2022-10-16T11:06:43;19.40;99.90
13405;DHT22;6773;51.192;7.024;2022-10-16T11:09:20;19.30;99.90
13405;DHT22;6773;51.192;7.024;2022-10-16T11:12:07;19.40;99.90
13405;DHT22;6773;51.192;7.024;2022-10-16T11:14:42;19.50;99.90
13405;DHT22;6773;51.192;7.024;2022-10-16T11:17:13;19.90;99.90
13405;DHT22;6773;51.192;7.024;2022-10-16T11:22:39;19.80;99.90
13405;DHT22;6773;51.192;7.024;2022-10-16T11:25:12;19.90;99.90
13405;DHT22;6773;51.192;7.024;2022-10-16T11:27:47;20.60;99.90
13405;DHT22;6773;51.192;7.024;2022-10-16T11:30:24;21.00;99.90
13405;DHT22;6773;51.192;7.024;2022-10-16T11:38:52;21.90;95.80
13405;DHT22;6773;51.192;7.024;2022-10-16T11:41:37;21.90;93.70
13405;DHT22;6773;51.192;7.024;2022-10-16T11:46:36;21.80;94.60
13405;DHT22;6773;51.192;7.024;2022-10-16T11:49:11;21.90;98.70
13405;DHT22;6773;51.192;7.024;2022-10-16T11:54:45;22.10;95.80
13405;DHT22;6773;51.192;7.024;2022-10-16T11:57:33;22.80;93.10
13405;DHT22;6773;51.192;7.024;2022-10-16T12:00:25;22.20;93.00
13405;DHT22;6773;51.192;7.024;2022-10-16T12:03:11;21.40;95.30
13405;DHT22;6773;51.192;7.024;2022-10-16T12:08:14;21.00;99.40
13405;DHT22;6773;51.192;7.024;2022-10-16T12:10:42;21.00;98.00
13405;DHT22;6773;51.192;7.024;2022-10-16T12:16:24;20.60;99.00
13405;DHT22;6773;51.192;7.024;2022-10-16T12:19:08;21.10;99.90
13405;DHT22;6773;51.192;7.024;2022-10-16T12:21:35;21.00;98.10
13405;DHT22;6773;51.192;7.024;2022-10-16T12:24:02;21.40;96.50
13405;DHT22;6773;51.192;7.024;2022-10-16T12:26:32;22.00;95.00
13405;DHT22;6773;51.192;7.024;2022-10-16T12:31:44;22.30;93.20
13405;DHT22;6773;51.192;7.024;2022-10-16T12:34:28;22.20;92.20
13405;DHT22;6773;51.192;7.024;2022-10-16T12:36:55;21.60;93.90
13405;DHT22;6773;51.192;7.024;2022-10-16T12:39:23;21.40;98.10
13405;DHT22;6773;51.192;7.024;2022-10-16T12:42:01;21.70;94.90
13405;DHT22;6773;51.192;7.024;2022-10-16T12:44:35;21.50;94.10
13405;DHT22;6773;51.192;7.024;2022-10-16T12:47:01;21.50;94.60
13405;DHT22;6773;51.192;7.024;2022-10-16T12:49:37;21.00;96.90
13405;DHT22;6773;51.192;7.024;2022-10-16T12:52:28;20.70;99.50
13405;DHT22;6773;51.192;7.024;2022-10-16T12:54:57;21.10;98.90
13405;DHT22;6773;51.192;7.024;2022-10-16T12:57:42;21.40;99.90
13405;DHT22;6773;51.192;7.024;2022-10-16T13:00:57;21.40;97.00
13405;DHT22;6773;51.192;7.024;2022-10-16T13:17:05;22.40;99.90
13405;DHT22;6773;51.192;7.024;2022-10-16T13:19:59;22.50;97.90
13405;DHT22;6773;51.192;7.024;2022-10-16T13:23:04;22.90;92.50
13405;DHT22;6773;51.192;7.024;2022-10-16T13:25:24;22.90;93.30
13405;DHT22;6773;51.192;7.024;2022-10-16T13:27:54;23.30;92.50
13405;DHT22;6773;51.192;7.024;2022-10-16T13:30:26;23.80;90.00
13405;DHT22;6773;51.192;7.024;2022-10-16T13:35:47;23.50;86.20
13405;DHT22;6773;51.192;7.024;2022-10-16T13:38:17;23.70;86.30
13405;DHT22;6773;51.192;7.024;2022-10-16T13:40:58;23.70;87.60
13405;DHT22;6773;51.192;7.024;2022-10-16T13:43:29;24.10;89.20
13405;DHT22;6773;51.192;7.024;2022-10-16T13:46:10;24.70;86.30
13405;DHT22;6773;51.192;7.024;2022-10-16T13:48:37;24.80;83.50
13405;DHT22;6773;51.192;7.024;2022-10-16T13:53:36;24.50;82.70
13405;DHT22;6773;51.192;7.024;2022-10-16T13:56:07;23.00;84.40
13405;DHT22;6773;51.192;7.024;2022-10-16T13:58:35;23.00;85.30
13405;DHT22;6773;51.192;7.024;2022-10-16T14:01:03;23.00;86.00
13405;DHT22;6773;51.192;7.024;2022-10-16T14:03:31;23.00;85.60
13405;DHT22;6773;51.192;7.024;2022-10-16T14:06:00;22.70;87.20
13405;DHT22;6773;51.192;7.024;2022-10-16T14:08:27;22.60;85.90
13405;DHT22;6773;51.192;7.024;2022-10-16T14:10:58;22.60;87.70
13405;DHT22;6773;51.192;7.024;2022-10-16T14:13:47;22.00;88.30
13405;DHT22;6773;51.192;7.024;2022-10-16T14:16:18;21.50;90.60
13405;DHT22;6773;51.192;7.024;2022-10-16T14:18:57;21.20;93.00
13405;DHT22;6773;51.192;7.024;2022-10-16T14:21:24;20.90;93.40
13405;DHT22;6773;51.192;7.024;2022-10-16T14:23:50;20.50;95.10
13405;DHT22;6773;51.192;7.024;2022-10-16T14:26:22;20.30;96.30
13405;DHT22;6773;51.192;7.024;2022-10-16T14:28:48;20.20;96.20
13405;DHT22;6773;51.192;7.024;2022-10-16T14:31:35;19.90;96.60
13405;DHT22;6773;51.192;7.024;2022-10-16T14:34:02;19.80;98.70
13405;DHT22;6773;51.192;7.024;2022-10-16T14:36:28;19.70;99.40
13405;DHT22;6773;51.192;7.024;2022-10-16T14:41:21;19.70;99.90
13405;DHT22;6773;51.192;7.024;2022-10-16T14:43:51;19.60;99.90
13405;DHT22;6773;51.192;7.024;2022-10-16T14:46:20;19.40;99.90
13405;DHT22;6773;51.192;7.024;2022-10-16T14:48:48;19.40;99.90
13405;DHT22;6773;51.192;7.024;2022-10-16T14:51:16;19.30;99.90
13405;DHT22;6773;51.192;7.024;2022-10-16T14:53:42;19.30;99.90
13405;DHT22;6773;51.192;7.024;2022-10-16T14:56:14;19.30;99.90
13405;DHT22;6773;51.192;7.024;2022-10-16T14:58:41;19.20;99.90
13405;DHT22;6773;51.192;7.024;2022-10-16T15:01:09;19.20;99.90
13405;DHT22;6773;51.192;7.024;2022-10-16T15:03:36;19.20;99.90
13405;DHT22;6773;51.192;7.024;2022-10-16T15:06:01;19.10;99.90
13405;DHT22;6773;51.192;7.024;2022-10-16T15:08:27;19.10;99.90
13405;DHT22;6773;51.192;7.024;2022-10-16T15:10:55;19.00;99.90
13405;DHT22;6773;51.192;7.024;2022-10-16T15:13:21;18.80;99.90
13405;DHT22;6773;51.192;7.024;2022-10-16T15:15:47;18.80;99.90
13405;DHT22;6773;51.192;7.024;2022-10-16T15:18:14;18.80;99.90
13405;DHT22;6773;51.192;7.024;2022-10-16T15:20:47;18.80;99.90
13405;DHT22;6773;51.192;7.024;2022-10-16T15:23:18;18.80;99.90
13405;DHT22;6773;51.192;7.024;2022-10-16T15:25:50;18.80;99.90
13405;DHT22;6773;51.192;7.024;2022-10-16T15:28:16;18.70;99.90
13405;DHT22;6773;51.192;7.024;2022-10-16T15:30:43;18.70;99.90
13405;DHT22;6773;51.192;7.024;2022-10-16T15:33:18;18.60;99.90
13405;DHT22;6773;51.192;7.024;2022-10-16T15:35:47;18.60;99.90
13405;DHT22;6773;51.192;7.024;2022-10-16T15:38:14;18.40;99.90
13405;DHT22;6773;51.192;7.024;2022-10-16T15:40:40;18.30;99.90
13405;DHT22;6773;51.192;7.024;2022-10-16T15:43:06;18.20;99.90
13405;DHT22;6773;51.192;7.024;2022-10-16T15:45:32;18.10;99.90
13405;DHT22;6773;51.192;7.024;2022-10-16T15:47:58;18.10;99.90
13405;DHT22;6773;51.192;7.024;2022-10-16T15:52:51;17.90;99.90
13405;DHT22;6773;51.192;7.024;2022-10-16T15:55:16;17.80;99.90
13405;DHT22;6773;51.192;7.024;2022-10-16T15:57:44;17.80;99.90
13405;DHT22;6773;51.192;7.024;2022-10-16T16:00:12;17.70;99.90
13405;DHT22;6773;51.192;7.024;2022-10-16T16:02:38;17.70;99.90
13405;DHT22;6773;51.192;7.024;2022-10-16T16:05:04;17.70;99.90
13405;DHT22;6773;51.192;7.024;2022-10-16T16:07:35;17.60;99.90
13405;DHT22;6773;51.192;7.024;2022-10-16T16:10:02;17.70;99.90
13405;DHT22;6773;51.192;7.024;2022-10-16T16:12:28;17.70;99.90
13405;DHT22;6773;51.192;7.024;2022-10-16T16:14:54;17.70;99.90
13405;DHT22;6773;51.192;7.024;2022-10-16T16:17:19;17.60;99.90
13405;DHT22;6773;51.192;7.024;2022-10-16T16:22:12;17.60;99.90
13405;DHT22;6773;51.192;7.024;2022-10-16T16:24:37;17.50;99.90
13405;DHT22;6773;51.192;7.024;2022-10-16T16:27:03;17.50;99.90
13405;DHT22;6773;51.192;7.024;2022-10-16T16:29:29;17.50;99.90
13405;DHT22;6773;51.192;7.024;2022-10-16T16:31:54;17.40;99.90
13405;DHT22;6773;51.192;7.024;2022-10-16T16:34:25;17.40;99.90
13405;DHT22;6773;51.192;7.024;2022-10-16T16:36:50;17.30;99.90
13405;DHT22;6773;51.192;7.024;2022-10-16T16:39:17;17.30;99.90
13405;DHT22;6773;51.192;7.024;2022-10-16T16:44:10;17.20;99.90
13405;DHT22;6773;51.192;7.024;2022-10-16T16:49:04;17.20;99.90
13405;DHT22;6773;51.192;7.024;2022-10-16T16:51:30;17.20;99.90
13405;DHT22;6773;51.192;7.024;2022-10-16T16:53:56;17.20;99.90
13405;DHT22;6773;51.192;7.024;2022-10-16T16:56:23;17.10;99.90
13405;DHT22;6773;51.192;7.024;2022-10-16T16:58:50;17.00;99.90
13405;DHT22;6773;51.192;7.024;2022-10-16T17:01:16;17.10;99.90
13405;DHT22;6773;51.192;7.024;2022-10-16T17:03:43;17.10;99.90
13405;DHT22;6773;51.192;7.024;2022-10-16T17:06:11;17.10;99.90
13405;DHT22;6773;51.192;7.024;2022-10-16T17:08:38;17.10;99.90
13405;DHT22;6773;51.192;7.024;2022-10-16T17:11:05;17.10;99.90
13405;DHT22;6773;51.192;7.024;2022-10-16T17:13:33;17.00;99.90
13405;DHT22;6773;51.192;7.024;2022-10-16T17:16:04;17.00;99.90
13405;DHT22;6773;51.192;7.024;2022-10-16T17:18:30;17.00;99.90
13405;DHT22;6773;51.192;7.024;2022-10-16T17:20:59;17.00;99.90
13405;DHT22;6773;51.192;7.024;2022-10-16T17:23:25;17.10;99.90
13405;DHT22;6773;51.192;7.024;2022-10-16T17:25:50;17.10;99.90
13405;DHT22;6773;51.192;7.024;2022-10-16T17:28:16;17.10;99.90
13405;DHT22;6773;51.192;7.024;2022-10-16T17:30:42;17.00;99.90
13405;DHT22;6773;51.192;7.024;2022-10-16T17:33:11;17.10;99.90
13405;DHT22;6773;51.192;7.024;2022-10-16T17:35:44;17.00;99.90
13405;DHT22;6773;51.192;7.024;2022-10-16T17:38:12;17.00;99.90
13405;DHT22;6773;51.192;7.024;2022-10-16T17:40:39;17.00;99.90
13405;DHT22;6773;51.192;7.024;2022-10-16T17:43:05;17.00;99.90
13405;DHT22;6773;51.192;7.024;2022-10-16T17:45:31;17.10;99.90
13405;DHT22;6773;51.192;7.024;2022-10-16T17:48:00;17.00;99.90
13405;DHT22;6773;51.192;7.024;2022-10-16T17:50:26;17.00;99.90
13405;DHT22;6773;51.192;7.024;2022-10-16T17:52:51;17.00;99.90
13405;DHT22;6773;51.192;7.024;2022-10-16T18:00:09;17.00;99.90
13405;DHT22;6773;51.192;7.024;2022-10-16T18:02:35;17.00;99.90
13405;DHT22;6773;51.192;7.024;2022-10-16T18:05:01;17.00;99.90
13405;DHT22;6773;51.192;7.024;2022-10-16T18:12:22;16.90;99.90
13405;DHT22;6773;51.192;7.024;2022-10-16T18:14:50;16.90;99.90
13405;DHT22;6773;51.192;7.024;2022-10-16T18:17:17;16.90;99.90
13405;DHT22;6773;51.192;7.024;2022-10-16T18:22:12;16.80;99.90
13405;DHT22;6773;51.192;7.024;2022-10-16T18:24:38;16.80;99.90
13405;DHT22;6773;51.192;7.024;2022-10-16T18:27:05;16.80;99.90
13405;DHT22;6773;51.192;7.024;2022-10-16T18:29:30;16.80;99.90
13405;DHT22;6773;51.192;7.024;2022-10-16T18:31:56;16.80;99.90
13405;DHT22;6773;51.192;7.024;2022-10-16T18:34:22;16.80;99.90
13405;DHT22;6773;51.192;7.024;2022-10-16T18:37:01;16.80;99.90
13405;DHT22;6773;51.192;7.024;2022-10-16T18:39:33;16.80;99.90
13405;DHT22;6773;51.192;7.024;2022-10-16T18:42:01;16.80;99.90
13405;DHT22;6773;51.192;7.024;2022-10-16T18:44:28;16.80;99.90
13405;DHT22;6773;51.192;7.024;2022-10-16T18:46:55;16.80;99.90
13405;DHT22;6773;51.192;7.024;2022-10-16T18:49:23;16.80;99.90
13405;DHT22;6773;51.192;7.024;2022-10-16T18:51:50;16.80;99.90
13405;DHT22;6773;51.192;7.024;2022-10-16T18:54:21;16.80;99.90
13405;DHT22;6773;51.192;7.024;2022-10-16T18:56:47;16.80;99.90